createdAt,value
2023-02-25T00:46:59.020Z,3.28
2023-02-25T00:49:32.348Z,6.10
2023-02-25T00:52:01.537Z,9.30
2023-02-25T00:54:30.064Z,5.07
2023-02-25T00:56:58.357Z,4.57
2023-02-25T00:59:26.763Z,6.38
2023-02-25T01:45:55.651Z,3.25
2023-02-25T01:48:29.190Z,3.47
2023-02-25T01:51:04.090Z,4.70
2023-02-25T01:53:39.737Z,4.65
2023-02-25T01:56:10.752Z,4.97
2023-02-25T01:58:40.254Z,3.85
2023-02-25T02:45:58.187Z,4.80
2023-02-25T02:48:35.810Z,2.97
2023-02-25T02:51:10.351Z,2.72
2023-02-25T02:53:45.332Z,4.70
2023-02-25T02:56:17.103Z,3.25
2023-02-25T02:58:49.378Z,2.03
2023-02-25T03:48:11.935Z,3.28
2023-02-25T03:50:46.010Z,4.72
2023-02-25T03:53:15.566Z,2.67
2023-02-25T03:55:57.953Z,3.35
2023-02-25T03:58:26.452Z,1.88
2023-02-25T04:48:24.138Z,2.35
2023-02-25T04:50:52.782Z,3.65
2023-02-25T04:53:21.537Z,2.30
2023-02-25T04:55:50.033Z,2.47
2023-02-25T04:58:18.438Z,2.22
2023-02-25T05:46:31.649Z,1.83
2023-02-25T05:49:00.055Z,2.10
2023-02-25T05:51:28.724Z,1.50
2023-02-25T05:53:58.173Z,2.78
2023-02-25T05:56:30.209Z,2.22
2023-02-25T05:59:00.602Z,2.63
2023-02-25T06:01:31.579Z,2.10
2023-02-25T06:04:01.142Z,2.08
2023-02-25T06:06:31.963Z,3.08
2023-02-25T06:09:00.796Z,2.67
2023-02-25T06:11:31.297Z,3.33
2023-02-25T06:14:00.678Z,2.58
2023-02-25T06:16:31.955Z,2.85
2023-02-25T06:19:02.105Z,4.75
2023-02-25T06:21:31.306Z,3.08
2023-02-25T06:23:59.947Z,4.22
2023-02-25T06:26:28.784Z,2.83
2023-02-25T06:28:57.702Z,2.58
2023-02-25T06:31:26.418Z,3.10
2023-02-25T06:33:56.256Z,3.72
2023-02-25T06:36:25.013Z,2.08
2023-02-25T06:38:53.712Z,2.28
2023-02-25T06:41:24.404Z,2.65
2023-02-25T06:43:53.598Z,1.40
2023-02-25T06:46:24.790Z,1.95
2023-02-25T06:48:55.632Z,2.95
2023-02-25T06:51:25.778Z,2.38
2023-02-25T06:53:54.166Z,1.67
2023-02-25T06:56:23.287Z,2.30
2023-02-25T06:58:52.519Z,1.55
2023-02-25T07:01:21.086Z,2.65
2023-02-25T07:03:49.642Z,2.00
2023-02-25T07:06:20.165Z,3.72
2023-02-25T07:08:48.650Z,1.42
2023-02-25T07:11:30.135Z,2.08
2023-02-25T07:13:58.901Z,1.40
2023-02-25T07:16:29.862Z,1.20
2023-02-25T07:19:02.153Z,1.75
2023-02-25T07:21:33.622Z,1.77
2023-02-25T07:24:01.872Z,1.70
2023-02-25T07:26:30.243Z,1.88
2023-02-25T07:29:00.053Z,1.17
2023-02-25T07:31:29.770Z,1.27
2023-02-25T07:34:03.191Z,1.30
2023-02-25T07:36:35.165Z,1.55
2023-02-25T07:39:04.458Z,3.13
2023-02-25T07:41:32.997Z,1.77
2023-02-25T07:44:05.280Z,5.32
2023-02-25T07:46:34.060Z,4.28
2023-02-25T07:49:02.679Z,4.63
2023-02-25T07:51:32.372Z,2.65
2023-02-25T07:54:01.158Z,3.03
2023-02-25T07:56:31.034Z,3.50
2023-02-25T07:58:59.408Z,3.13
2023-02-25T08:01:29.967Z,1.55
2023-02-25T08:04:00.591Z,2.17
2023-02-25T08:06:29.498Z,3.05
2023-02-25T08:08:59.211Z,5.25
2023-02-25T08:11:28.324Z,3.58
2023-02-25T08:13:56.609Z,2.38
2023-02-25T08:16:24.777Z,3.17
2023-02-25T08:18:54.310Z,2.55
2023-02-25T08:21:24.637Z,3.38
2023-02-25T08:23:54.291Z,1.52
2023-02-25T08:26:27.100Z,6.85
2023-02-25T08:28:57.079Z,4.38
2023-02-25T08:31:25.926Z,6.65
2023-02-25T08:33:54.942Z,3.60
2023-02-25T08:36:26.707Z,1.50
2023-02-25T08:38:58.300Z,5.57
2023-02-25T08:41:30.119Z,3.80
2023-02-25T08:44:01.181Z,4.78
2023-02-25T08:46:32.514Z,1.55
2023-02-25T08:49:02.061Z,2.90
2023-02-25T08:51:34.961Z,2.35
2023-02-25T08:54:06.547Z,7.25
2023-02-25T08:56:37.189Z,2.15
2023-02-25T08:59:06.495Z,2.83
2023-02-25T09:01:45.590Z,1.70
2023-02-25T09:04:15.729Z,2.88
2023-02-25T09:06:47.173Z,2.35
2023-02-25T09:09:16.083Z,1.58
2023-02-25T09:11:46.833Z,2.58
2023-02-25T09:14:15.765Z,3.15
2023-02-25T09:16:44.314Z,2.25
2023-02-25T09:19:15.593Z,3.30
2023-02-25T09:21:44.737Z,2.65
2023-02-25T09:24:13.251Z,3.35
2023-02-25T09:26:42.067Z,2.58
2023-02-25T09:29:12.038Z,1.33
2023-02-25T09:31:40.497Z,1.52
2023-02-25T09:34:13.845Z,1.55
2023-02-25T09:36:43.299Z,1.45
2023-02-25T09:39:11.642Z,1.60
2023-02-25T09:41:49.912Z,1.77
2023-02-25T09:44:23.561Z,2.67
2023-02-25T09:46:57.112Z,1.75
2023-02-25T09:49:30.552Z,2.08
2023-02-25T09:52:05.748Z,2.33
2023-02-25T09:54:39.483Z,2.03
2023-02-25T09:57:11.669Z,1.80
2023-02-25T09:59:41.394Z,2.47
2023-02-25T10:02:28.545Z,2.92
2023-02-25T10:05:21.904Z,1.73
2023-02-25T10:08:02.208Z,1.20
2023-02-25T10:10:40.200Z,1.33
2023-02-25T10:13:26.451Z,6.13
2023-02-25T10:16:09.799Z,1.13
2023-02-25T10:19:03.699Z,2.08
2023-02-25T10:21:48.516Z,1.45
2023-02-25T10:24:30.190Z,1.85
2023-02-25T10:27:05.134Z,2.58
2023-02-25T10:29:41.968Z,1.88
2023-02-25T10:32:21.703Z,2.58
2023-02-25T10:34:53.258Z,2.17
2023-02-25T10:37:27.203Z,2.95
2023-02-25T10:39:59.714Z,2.70
2023-02-25T10:42:29.035Z,1.27
2023-02-25T10:45:09.276Z,2.65
2023-02-25T10:47:42.378Z,1.00
2023-02-25T10:50:19.621Z,0.80
2023-02-25T10:53:02.051Z,3.35
2023-02-25T10:55:51.594Z,2.15
2023-02-25T10:58:36.023Z,14.13
2023-02-25T11:01:18.850Z,10.20
2023-02-25T11:03:58.911Z,78.45
2023-02-25T11:06:30.210Z,400.80
2023-02-25T11:09:01.398Z,637.50
2023-02-25T11:11:32.423Z,404.45
2023-02-25T11:14:05.271Z,1999.90
2023-02-25T11:16:37.181Z,1999.90
2023-02-25T11:19:18.044Z,1999.90
2023-02-25T11:21:47.174Z,1999.90
2023-02-25T11:24:19.981Z,1999.90
2023-02-25T11:26:52.243Z,1999.90
2023-02-25T11:29:25.179Z,1999.90
2023-02-25T11:31:57.754Z,1999.90
2023-02-25T11:34:31.968Z,1999.90
2023-02-25T11:37:26.187Z,1999.90
2023-02-25T11:39:56.670Z,1999.90
2023-02-25T11:42:28.135Z,1999.90
2023-02-25T11:45:01.713Z,1999.90
2023-02-25T11:47:33.395Z,1999.90
2023-02-25T11:50:24.940Z,1874.57
2023-02-25T11:53:05.726Z,1428.20
2023-02-25T11:56:00.355Z,1192.40
2023-02-25T11:58:47.592Z,1067.35
2023-02-25T12:01:25.870Z,853.33
2023-02-25T12:04:26.975Z,818.47
2023-02-25T12:07:29.685Z,807.85
2023-02-25T12:10:39.412Z,799.95
2023-02-25T12:13:54.285Z,789.65
2023-02-25T12:17:31.159Z,785.03
2023-02-25T12:20:50.071Z,805.65
2023-02-25T12:23:57.546Z,776.17
2023-02-25T12:26:40.348Z,746.50
2023-02-25T12:29:34.638Z,762.33
2023-02-25T12:32:28.502Z,728.22
2023-02-25T12:35:49.166Z,734.10
2023-02-25T12:39:17.319Z,689.20
2023-02-25T12:41:50.569Z,684.33
2023-02-25T12:44:51.197Z,687.40
2023-02-25T12:47:31.410Z,665.97
2023-02-25T12:50:32.522Z,632.83
2023-02-25T12:53:37.560Z,608.67
2023-02-25T12:56:47.030Z,496.58
2023-02-25T12:59:46.719Z,378.40
2023-02-25T13:02:50.896Z,254.13
2023-02-25T13:06:05.263Z,246.57
2023-02-25T13:09:01.216Z,296.85
2023-02-25T13:12:10.114Z,287.80
2023-02-25T13:14:50.810Z,269.90
2023-02-25T13:17:56.157Z,270.67
2023-02-25T13:21:09.783Z,258.40
2023-02-25T13:24:00.470Z,255.63
2023-02-25T13:27:04.083Z,244.07
2023-02-25T13:29:57.110Z,217.10
2023-02-25T13:32:37.364Z,215.25
2023-02-25T13:35:32.060Z,204.23
2023-02-25T13:38:18.977Z,208.25
2023-02-25T13:41:11.234Z,190.25
2023-02-25T13:44:22.669Z,190.88
2023-02-25T13:47:36.333Z,188.93
2023-02-25T13:50:47.786Z,169.00
2023-02-25T13:53:57.006Z,185.18
2023-02-25T13:56:56.464Z,172.73
2023-02-25T13:59:51.786Z,169.65
2023-02-25T14:02:47.269Z,152.45
2023-02-25T14:05:59.285Z,156.32
2023-02-25T14:09:18.193Z,157.95
2023-02-25T14:12:11.539Z,144.75
2023-02-25T14:15:29.325Z,142.68
2023-02-25T14:18:44.217Z,152.60
2023-02-25T14:21:51.642Z,146.93
2023-02-25T14:24:30.591Z,142.07
2023-02-25T14:27:16.593Z,144.00
2023-02-25T14:30:12.711Z,135.52
2023-02-25T14:33:14.179Z,146.88
2023-02-25T14:36:00.255Z,149.60
2023-02-25T14:38:42.913Z,140.85
2023-02-25T14:41:28.593Z,143.93
2023-02-25T14:44:02.760Z,141.00
2023-02-25T14:46:40.230Z,140.73
2023-02-25T14:49:16.529Z,130.07
2023-02-25T14:52:15.397Z,135.60
2023-02-25T14:55:26.020Z,127.75
2023-02-25T14:58:47.177Z,126.88
2023-02-25T15:01:55.379Z,124.90
2023-02-25T15:05:09.343Z,126.22
2023-02-25T15:08:06.568Z,125.45
2023-02-25T15:10:48.336Z,124.80
2023-02-25T15:13:49.572Z,110.53
2023-02-25T15:17:01.112Z,119.28
2023-02-25T15:19:56.600Z,118.97
2023-02-25T15:22:27.318Z,114.18
2023-02-25T15:25:30.594Z,107.28
2023-02-25T15:28:02.346Z,108.25
2023-02-25T15:31:28.352Z,109.00
2023-02-25T15:34:34.962Z,92.50
2023-02-25T15:37:36.383Z,91.65
2023-02-25T15:40:47.195Z,99.93
2023-02-25T15:43:44.891Z,96.63
2023-02-25T15:46:41.855Z,90.78
2023-02-25T15:49:33.525Z,87.95
2023-02-25T15:52:04.721Z,85.15
2023-02-25T15:54:51.764Z,89.03
2023-02-25T15:57:41.839Z,77.25
2023-02-25T16:00:51.908Z,80.70
2023-02-25T16:03:43.423Z,87.05
2023-02-25T16:06:17.594Z,76.88
2023-02-25T16:08:53.605Z,79.57
2023-02-25T16:11:35.397Z,79.72
2023-02-25T16:14:08.813Z,80.80
2023-02-25T16:16:45.164Z,79.28
2023-02-25T16:19:17.173Z,73.55
2023-02-25T16:21:50.288Z,75.40
2023-02-25T16:24:20.334Z,73.07
2023-02-25T16:27:00.079Z,70.18
2023-02-25T16:29:52.817Z,65.20
2023-02-25T16:32:34.331Z,73.68
2023-02-25T16:35:10.687Z,65.13
2023-02-25T16:37:51.301Z,73.20
2023-02-25T16:40:28.807Z,76.03
2023-02-25T16:42:59.869Z,70.75
2023-02-25T16:45:32.907Z,70.75
2023-02-25T16:48:06.860Z,67.70
2023-02-25T16:50:37.142Z,69.18
2023-02-25T16:53:06.927Z,69.20
2023-02-25T16:55:41.583Z,62.53
2023-02-25T16:58:24.309Z,64.40
2023-02-25T17:00:55.110Z,57.53
2023-02-25T17:03:25.513Z,61.15
2023-02-25T17:06:07.344Z,61.85
2023-02-25T17:08:38.451Z,58.88
2023-02-25T17:11:07.638Z,58.72
2023-02-25T17:13:41.333Z,61.80
2023-02-25T17:16:23.307Z,56.03
2023-02-25T17:18:56.333Z,57.63
2023-02-25T17:21:29.245Z,56.45
2023-02-25T17:24:00.744Z,56.65
2023-02-25T17:26:30.334Z,54.35
2023-02-25T17:29:01.955Z,52.28
2023-02-25T17:31:31.674Z,53.65
2023-02-25T17:34:03.428Z,55.40
2023-02-25T17:36:35.864Z,53.05
2023-02-25T17:39:09.385Z,48.92
2023-02-25T17:41:37.946Z,46.22
2023-02-25T17:44:06.417Z,46.40
2023-02-25T17:46:38.247Z,47.45
2023-02-25T17:49:21.283Z,54.05
2023-02-25T17:51:55.482Z,46.10
2023-02-25T17:54:27.349Z,46.42
2023-02-25T17:57:00.560Z,45.65
2023-02-25T17:59:38.669Z,45.95
2023-02-25T18:02:32.500Z,48.65
2023-02-25T18:05:27.146Z,47.28
2023-02-25T18:08:17.712Z,45.88
2023-02-25T18:10:55.893Z,46.42
2023-02-25T18:13:35.245Z,54.00
2023-02-25T18:16:38.838Z,55.92
2023-02-25T18:19:25.395Z,60.80
2023-02-25T18:21:54.316Z,61.53
2023-02-25T18:24:33.102Z,58.47
2023-02-25T18:27:26.869Z,62.97
2023-02-25T18:29:58.015Z,64.40
2023-02-25T18:32:27.434Z,73.85
2023-02-25T18:34:55.769Z,67.05
2023-02-25T18:37:24.236Z,67.80
2023-02-25T18:39:52.741Z,64.20
2023-02-25T18:42:22.443Z,63.90
2023-02-25T18:44:50.789Z,59.38
2023-02-25T18:47:19.120Z,58.92
2023-02-25T18:49:47.749Z,63.00
2023-02-25T18:52:23.396Z,62.25
2023-02-25T18:54:52.042Z,61.92
2023-02-25T18:57:25.725Z,60.45
2023-02-25T18:59:54.625Z,57.80
2023-02-25T19:02:29.977Z,63.80
2023-02-25T19:04:59.093Z,68.05
2023-02-25T19:07:30.972Z,73.80
2023-02-25T19:09:59.546Z,73.68
2023-02-25T19:12:30.586Z,81.30
2023-02-25T19:15:02.111Z,81.82
2023-02-25T19:17:30.856Z,74.68
2023-02-25T19:19:59.243Z,86.50
2023-02-25T19:22:27.813Z,86.75
2023-02-25T19:24:56.148Z,76.65
2023-02-25T19:27:28.767Z,76.75
2023-02-25T19:30:00.146Z,85.45
2023-02-25T19:32:28.625Z,90.05
2023-02-25T19:34:56.902Z,73.65
2023-02-25T19:37:27.750Z,84.38
2023-02-25T19:39:56.046Z,70.97
2023-02-25T19:42:24.400Z,87.47
2023-02-25T19:44:54.137Z,78.97
2023-02-25T19:47:22.449Z,73.40
2023-02-25T19:49:50.750Z,71.25
2023-02-25T19:52:19.152Z,71.18
2023-02-25T19:54:47.486Z,77.20
2023-02-25T19:57:15.927Z,70.60
2023-02-25T19:59:44.326Z,73.57
2023-02-25T20:02:15.208Z,72.10
2023-02-25T20:04:43.926Z,65.03
2023-02-25T20:07:12.654Z,63.85
2023-02-25T20:09:41.016Z,69.93
2023-02-25T20:12:09.705Z,64.03
2023-02-25T20:14:38.909Z,36.15
2023-02-25T20:17:07.226Z,32.83
2023-02-25T20:19:36.990Z,35.88
2023-02-25T20:22:06.864Z,40.15
2023-02-25T20:24:36.172Z,39.97
2023-02-25T20:27:04.544Z,44.85
2023-02-25T20:29:33.038Z,39.90
2023-02-25T20:32:02.798Z,38.50
2023-02-25T20:34:31.859Z,38.85
2023-02-25T20:37:07.323Z,39.53
2023-02-25T20:39:52.220Z,38.08
2023-02-25T20:42:23.845Z,37.25
2023-02-25T20:44:53.929Z,31.75
2023-02-25T20:47:24.936Z,28.05
2023-02-25T20:49:54.490Z,24.55
2023-02-25T20:52:26.772Z,30.42
2023-02-25T20:54:55.562Z,28.42
2023-02-25T20:57:26.588Z,28.75
2023-02-25T20:59:55.555Z,30.48
2023-02-25T21:02:24.293Z,26.88
2023-02-25T21:04:52.653Z,25.98
2023-02-25T21:07:20.980Z,22.23
2023-02-25T21:09:50.598Z,26.25
2023-02-25T21:12:19.078Z,23.85
2023-02-25T21:14:47.468Z,21.13
2023-02-25T21:17:15.746Z,21.10
2023-02-25T21:19:44.080Z,20.27
2023-02-25T21:22:12.399Z,20.08
2023-02-25T21:24:40.676Z,19.75
2023-02-25T21:27:10.360Z,22.00
2023-02-25T21:29:38.678Z,22.65
2023-02-25T21:32:07.075Z,18.38
2023-02-25T21:34:37.163Z,20.35
2023-02-25T21:37:05.459Z,19.15
2023-02-25T21:39:34.028Z,19.17
2023-02-25T21:42:02.395Z,14.63
2023-02-25T21:44:32.212Z,15.77
2023-02-25T21:47:00.610Z,14.30
2023-02-25T21:49:31.506Z,11.68
2023-02-25T21:52:00.144Z,12.82
2023-02-25T21:54:28.759Z,11.63
2023-02-25T21:56:57.172Z,11.95
2023-02-25T21:59:26.044Z,13.02
2023-02-25T22:01:56.028Z,14.25
2023-02-25T22:04:24.470Z,12.75
2023-02-25T22:06:52.901Z,11.55
2023-02-25T22:09:21.302Z,15.65
2023-02-25T22:11:49.658Z,13.93
2023-02-25T22:14:17.937Z,13.27
2023-02-25T22:16:46.273Z,15.23
2023-02-25T22:19:15.881Z,12.43
2023-02-25T22:21:44.186Z,11.13
2023-02-25T22:24:12.580Z,13.07
2023-02-25T22:26:41.036Z,10.52
2023-02-25T22:29:10.496Z,13.45
2023-02-25T22:31:38.975Z,9.27
2023-02-25T22:34:08.142Z,13.45
2023-02-25T22:36:37.830Z,11.15
2023-02-25T22:39:07.877Z,10.45
2023-02-25T22:41:36.849Z,10.55
2023-02-25T22:44:06.838Z,10.57
2023-02-25T22:46:38.071Z,15.00
2023-02-25T22:49:08.047Z,12.00
2023-02-25T22:51:54.489Z,10.00
2023-02-25T22:54:22.820Z,10.52
2023-02-25T22:57:12.892Z,10.65
2023-02-25T22:59:41.357Z,9.90
2023-02-25T23:02:09.790Z,9.27
2023-02-25T23:04:38.103Z,8.38
2023-02-25T23:07:07.813Z,10.27
2023-02-25T23:09:36.294Z,12.07
2023-02-25T23:12:05.732Z,9.15
2023-02-25T23:14:35.746Z,8.40
2023-02-25T23:17:04.520Z,9.40
2023-02-25T23:19:32.905Z,9.27
2023-02-25T23:22:01.314Z,8.18
2023-02-25T23:24:31.228Z,6.70
2023-02-25T23:26:59.586Z,9.30
2023-02-25T23:29:28.090Z,9.45
2023-02-25T23:31:56.545Z,10.38
2023-02-25T23:34:25.881Z,6.97
2023-02-25T23:36:57.476Z,6.72
2023-02-25T23:39:26.433Z,9.20
2023-02-25T23:41:56.130Z,7.85
2023-02-25T23:44:24.705Z,7.50
2023-02-25T23:46:53.189Z,8.82
2023-02-25T23:49:21.565Z,6.70
2023-02-25T23:51:50.125Z,7.10
2023-02-25T23:54:21.683Z,8.13
2023-02-25T23:56:51.036Z,6.88
2023-02-25T23:59:23.693Z,6.47
